首页
METAR-TAF:

METAR-TAF

机场 :

Figari, 法国

纬度: 41-30N, 经度: 009-06E, 海拔: 26米

当前天气观测

该预报发布于29分钟前的07:00 UTC
风速2节,风向多变
温度 1°C
湿度 100%
气压 1028 hPa
能见度10公里或以上
1500米以下无云,无积雨云

METAR: LFKF 170700Z AUTO VRB02KT CAVOK 01/01 Q1028 NOSIG

时间: 08:29 (07:29 UTC)

预报

该预报发布于5小时和29分钟前的02:00 UTC
预报有效从17日的 03点(UTC)到 18日的 03点(UTC)
风速4节,风向北转东北
能见度10公里或以上
1500米以下无云,无积雨云
成为
从 17日的 09点(UTC)到 17日的 11点(UTC)
风速10节,风向西转西南
短暂存在
从 17日的 23点(UTC)到 18日的 03点(UTC)
多云层高于1000英尺

TAF: LFKF 170200Z 1703/1803 02004KT CAVOK BECMG 1709/1711 24010KT TEMPO 1723/1803 BKN010

超过4000个机场的气象观测和天气预报(METAR&TAF报告)。

可查询的气象台以黄色和红色小点在地图上表示。

将鼠标移到小点上方,可查看气象台名称。

然后点击查看天气观测和预报。

如需切换地图:点击带黑十字的绿色按钮放大地图;点击带横线的绿色按钮缩小地图;或者点击绿色箭头查看邻近地区的地图。


METAR-TAF: